Time;durP1;ratioP1;P1;durP2;ratioP2;P2;SDS_P1;SDS_P2;PMS_P1;PMS_P2;Temp;Humidity;BMP_temperature;BMP_pressure;BME280_temperature;BME280_humidity;BME280_pressure;Samples;Min_cycle;Max_cycle;Signal;HPM_P1;HPM_P2
2023/03/15 00:01:02;;;;;;;1.77;1.37;;;1.10;99.90;;;;;;5030952;28;20205;-63
2023/03/15 00:03:28;;;;;;;5.27;2.00;;;1.10;99.90;;;;;;5012610;28;20437;-63
2023/03/15 00:05:54;;;;;;;4.90;2.50;;;1.00;99.90;;;;;;5025921;28;20453;-63
2023/03/15 00:08:20;;;;;;;6.63;3.07;;;1.00;99.90;;;;;;5030560;28;20482;-63
2023/03/15 00:10:47;;;;;;;13.50;2.50;;;1.00;99.90;;;;;;5030253;28;20194;-63
2023/03/15 00:13:15;;;;;;;8.40;2.20;;;1.00;99.90;;;;;;5028785;28;20456;-63
2023/03/15 00:15:48;;;;;;;3.57;1.80;;;1.00;99.90;;;;;;5029920;28;20510;-63
2023/03/15 00:18:15;;;;;;;3.97;1.77;;;1.00;99.90;;;;;;5030837;28;20429;-63
2023/03/15 00:20:41;;;;;;;2.57;1.50;;;1.00;99.90;;;;;;5027787;28;20421;-63
2023/03/15 00:23:07;;;;;;;4.87;2.03;;;1.00;99.90;;;;;;5030136;28;20436;-63
2023/03/15 00:25:32;;;;;;;6.50;2.33;;;1.00;99.90;;;;;;5030703;28;20248;-63
2023/03/15 00:27:58;;;;;;;6.83;1.37;;;1.10;99.90;;;;;;5030278;28;20516;-63
2023/03/15 00:30:24;;;;;;;7.90;2.83;;;1.10;99.90;;;;;;5030997;28;20807;-63
2023/03/15 00:32:52;;;;;;;9.93;1.80;;;1.10;99.90;;;;;;5030509;28;20194;-63
2023/03/15 00:35:18;;;;;;;3.93;1.80;;;1.10;99.90;;;;;;5030716;28;20203;-63
2023/03/15 00:37:44;;;;;;;4.33;1.90;;;1.10;99.90;;;;;;5030734;28;20866;-63
2023/03/15 00:40:11;;;;;;;2.50;1.27;;;1.10;99.90;;;;;;5031189;28;20475;-63
2023/03/15 00:42:37;;;;;;;3.30;1.70;;;1.10;99.90;;;;;;5030171;28;20421;-63
2023/03/15 00:45:04;;;;;;;3.17;1.23;;;1.10;99.90;;;;;;5031522;28;20425;-63
2023/03/15 00:47:30;;;;;;;5.93;1.73;;;1.10;99.90;;;;;;5031109;28;20459;-64
2023/03/15 00:49:55;;;;;;;2.90;1.40;;;1.10;99.90;;;;;;5031018;28;20422;-63
2023/03/15 00:52:21;;;;;;;3.50;1.73;;;1.10;99.90;;;;;;5029994;28;20214;-65
2023/03/15 00:54:54;;;;;;;1.97;1.10;;;1.10;99.90;;;;;;5030374;28;20190;-65
2023/03/15 00:57:20;;;;;;;19.60;2.30;;;1.00;99.90;;;;;;5029659;28;20179;-65
2023/03/15 00:59:46;;;;;;;2.70;1.10;;;1.00;99.90;;;;;;5030043;28;20436;-65
2023/03/15 01:02:12;;;;;;;4.03;1.43;;;1.00;99.90;;;;;;5029765;28;20436;-63
2023/03/15 01:04:38;;;;;;;3.17;2.00;;;1.00;99.90;;;;;;5030056;28;20184;-63
2023/03/15 01:07:04;;;;;;;7.57;1.80;;;1.00;99.90;;;;;;5029939;28;20420;-63
2023/03/15 01:09:30;;;;;;;9.93;1.70;;;1.00;99.90;;;;;;5030201;28;20178;-63
2023/03/15 01:11:57;;;;;;;3.30;1.77;;;1.00;99.90;;;;;;5032667;28;20420;-63
2023/03/15 01:14:23;;;;;;;3.63;1.57;;;1.00;99.90;;;;;;5033367;28;20428;-63
2023/03/15 01:16:48;;;;;;;10.50;1.70;;;1.00;99.90;;;;;;5034038;28;20464;-63
2023/03/15 01:19:14;;;;;;;3.97;1.40;;;1.00;99.90;;;;;;5033293;28;20433;-63
2023/03/15 01:21:40;;;;;;;4.40;1.73;;;1.00;99.90;;;;;;5033627;28;20273;-63
2023/03/15 01:24:06;;;;;;;2.87;1.47;;;1.00;99.90;;;;;;5033792;28;20252;-63
2023/03/15 01:26:32;;;;;;;7.20;1.37;;;0.90;99.90;;;;;;5033908;28;20277;-63
2023/03/15 01:28:57;;;;;;;7.90;1.47;;;0.90;99.90;;;;;;5032992;28;20186;-63
2023/03/15 01:31:29;;;;;;;2.00;0.87;;;0.80;99.90;;;;;;5034042;28;20190;-63
2023/03/15 01:33:56;;;;;;;3.23;1.30;;;0.70;99.90;;;;;;5033494;28;20183;-64
2023/03/15 01:36:22;;;;;;;3.20;1.33;;;0.70;99.90;;;;;;5033872;28;20472;-64
2023/03/15 01:38:51;;;;;;;4.00;1.60;;;0.60;99.90;;;;;;5033431;28;20429;-63
2023/03/15 01:41:17;;;;;;;2.53;0.97;;;0.70;99.90;;;;;;5033534;28;20417;-63
2023/03/15 01:43:46;;;;;;;11.13;1.70;;;0.70;99.90;;;;;;5032128;28;20495;-63
2023/03/15 01:46:32;;;;;;;1.87;1.00;;;0.70;99.90;;;;;;5033419;28;20429;-64
2023/03/15 01:49:33;;;;;;;2.57;1.10;;;0.70;99.90;;;;;;5020970;28;20417;-64
2023/03/15 01:52:04;;;;;;;3.43;1.60;;;0.70;99.90;;;;;;5017975;28;20425;-64
2023/03/15 01:54:52;;;;;;;4.13;1.20;;;0.60;99.90;;;;;;5033144;28;20413;-65
2023/03/15 01:57:21;;;;;;;1.20;0.70;;;0.60;99.90;;;;;;5032587;28;20492;-64
2023/03/15 02:00:02;;;;;;;4.60;1.30;;;0.60;99.90;;;;;;5032443;28;20490;-64
2023/03/15 02:02:28;;;;;;;2.80;0.90;;;0.60;99.90;;;;;;5031941;28;20511;-64
2023/03/15 02:04:59;;;;;;;2.90;1.27;;;0.60;99.90;;;;;;5032891;28;20607;-65
2023/03/15 02:07:27;;;;;;;1.70;0.70;;;0.60;99.90;;;;;;5032889;28;20179;-65
2023/03/15 02:10:04;;;;;;;7.93;1.40;;;0.50;99.90;;;;;;5032976;28;20421;-64
2023/03/15 02:12:33;;;;;;;1.53;0.77;;;0.60;99.90;;;;;;5031575;28;20425;-64
2023/03/15 02:15:01;;;;;;;2.50;1.70;;;0.50;99.90;;;;;;5032687;28;20413;-65
2023/03/15 02:17:39;;;;;;;3.17;1.40;;;0.50;99.90;;;;;;5032630;28;20756;-65
2023/03/15 02:20:08;;;;;;;3.03;1.50;;;0.60;99.90;;;;;;5032910;28;20433;-64
2023/03/15 02:22:54;;;;;;;5.80;1.53;;;0.60;99.90;;;;;;5030889;28;20428;-65
2023/03/15 02:25:31;;;;;;;2.40;0.80;;;0.50;99.90;;;;;;5032792;28;20432;-64
2023/03/15 02:27:58;;;;;;;3.50;1.00;;;0.50;99.90;;;;;;5031597;28;21068;-65
2023/03/15 02:30:23;;;;;;;6.83;1.10;;;0.50;99.90;;;;;;5032593;28;20421;-65
2023/03/15 02:32:49;;;;;;;6.93;1.80;;;0.40;99.90;;;;;;5031765;28;20719;-64
2023/03/15 02:35:27;;;;;;;3.93;1.37;;;0.40;99.90;;;;;;5032536;28;20210;-64
2023/03/15 02:37:53;;;;;;;3.00;0.90;;;0.40;99.90;;;;;;5032036;28;20178;-64
2023/03/15 02:40:21;;;;;;;2.27;1.33;;;0.40;99.90;;;;;;5032285;28;20417;-65
2023/03/15 02:42:52;;;;;;;2.07;1.20;;;0.40;99.90;;;;;;5030932;28;20178;-65
2023/03/15 02:45:19;;;;;;;1.50;1.10;;;0.40;99.90;;;;;;5032024;28;20421;-64
2023/03/15 02:47:45;;;;;;;4.03;1.70;;;0.30;99.90;;;;;;5032149;28;20429;-65
2023/03/15 02:50:11;;;;;;;7.80;1.50;;;0.40;99.90;;;;;;5032346;28;20417;-65
2023/03/15 02:52:37;;;;;;;1.53;0.90;;;0.30;99.90;;;;;;5031405;28;20902;-65
2023/03/15 02:55:02;;;;;;;6.63;1.13;;;0.20;99.90;;;;;;5031745;28;20186;-64
2023/03/15 02:57:28;;;;;;;1.80;1.13;;;0.20;99.90;;;;;;5031315;28;20179;-64
2023/03/15 02:59:54;;;;;;;2.27;0.63;;;0.20;99.90;;;;;;5031817;28;20287;-64
2023/03/15 03:02:20;;;;;;;4.73;1.30;;;0.20;99.90;;;;;;5031476;28;20569;-64
2023/03/15 03:04:47;;;;;;;4.20;1.43;;;0.20;99.90;;;;;;5032316;28;20423;-64
2023/03/15 03:07:12;;;;;;;3.50;1.37;;;0.20;99.90;;;;;;5031978;28;20710;-64
2023/03/15 03:09:38;;;;;;;3.83;1.43;;;0.20;99.90;;;;;;5031596;28;20563;-64
2023/03/15 03:12:04;;;;;;;3.10;0.87;;;0.30;99.90;;;;;;5031075;28;20190;-64
2023/03/15 03:14:30;;;;;;;6.93;1.50;;;0.30;99.90;;;;;;5030996;28;20197;-64
2023/03/15 03:16:55;;;;;;;1.60;0.90;;;0.20;99.90;;;;;;5031552;28;20465;-64
2023/03/15 03:19:24;;;;;;;2.97;1.30;;;0.20;99.90;;;;;;5031353;28;20191;-64
2023/03/15 03:21:53;;;;;;;3.13;1.20;;;0.20;99.90;;;;;;5031268;28;20304;-65
2023/03/15 03:24:19;;;;;;;3.00;1.40;;;0.10;99.90;;;;;;5030934;28;20424;-64
2023/03/15 03:26:45;;;;;;;5.00;1.17;;;0.10;99.90;;;;;;5031646;28;20429;-65
2023/03/15 03:29:15;;;;;;;2.60;1.27;;;0.00;99.90;;;;;;5030228;28;20425;-65
2023/03/15 03:31:41;;;;;;;3.83;1.43;;;0.00;99.90;;;;;;5031033;28;20535;-64
2023/03/15 03:34:08;;;;;;;3.83;1.53;;;-0.10;99.90;;;;;;5030730;28;20437;-65
2023/03/15 03:36:34;;;;;;;5.80;1.70;;;-0.10;99.90;;;;;;5031204;28;21139;-65
2023/03/15 03:39:00;;;;;;;6.20;1.20;;;-0.10;99.90;;;;;;5031087;28;20512;-64
2023/03/15 03:41:26;;;;;;;3.33;1.40;;;-0.10;99.90;;;;;;5031341;28;20201;-64
2023/03/15 03:43:52;;;;;;;1.93;1.10;;;-0.10;99.90;;;;;;5029894;28;20885;-64
2023/03/15 03:46:17;;;;;;;5.53;2.10;;;-0.20;99.90;;;;;;5031261;28;20555;-64
2023/03/15 03:48:43;;;;;;;1.80;1.00;;;-0.20;99.90;;;;;;5031278;28;20183;-64
2023/03/15 03:51:09;;;;;;;2.90;1.60;;;-0.20;99.90;;;;;;5031170;28;20205;-64
2023/03/15 03:53:34;;;;;;;2.33;1.27;;;-0.20;99.90;;;;;;5030239;28;20205;-65
2023/03/15 03:56:02;;;;;;;4.33;1.27;;;-0.30;99.90;;;;;;5030752;28;20307;-65
2023/03/15 03:58:28;;;;;;;4.23;1.70;;;-0.30;99.90;;;;;;5029566;28;20224;-65
2023/03/15 04:00:54;;;;;;;4.00;2.33;;;-0.40;99.90;;;;;;5030392;28;20463;-65
2023/03/15 04:03:25;;;;;;;3.67;1.77;;;-0.40;99.90;;;;;;5029743;28;20436;-65
2023/03/15 04:05:55;;;;;;;8.23;1.80;;;-0.40;99.90;;;;;;5030111;28;20186;-65
2023/03/15 04:08:21;;;;;;;2.50;1.40;;;-0.50;99.90;;;;;;5026434;28;20417;-65
2023/03/15 04:10:54;;;;;;;7.60;2.10;;;-0.40;99.90;;;;;;5030183;28;20579;-65
2023/03/15 04:13:22;;;;;;;5.77;2.40;;;-0.30;99.90;;;;;;5029055;28;20409;-64
2023/03/15 04:15:48;;;;;;;4.00;2.10;;;-0.30;99.90;;;;;;5030153;28;20465;-64
2023/03/15 04:18:14;;;;;;;7.50;1.70;;;-0.30;99.90;;;;;;5030012;28;20421;-64
2023/03/15 04:20:45;;;;;;;1.97;1.13;;;-0.30;99.90;;;;;;5029927;28;20575;-64
2023/03/15 04:23:14;;;;;;;4.60;1.33;;;-0.30;99.90;;;;;;5029495;28;20428;-65
2023/03/15 04:25:40;;;;;;;4.00;1.30;;;-0.30;99.90;;;;;;5030525;28;20432;-65
2023/03/15 04:28:09;;;;;;;1.90;1.10;;;-0.30;99.90;;;;;;5029623;28;20828;-65
2023/03/15 04:30:36;;;;;;;8.73;2.90;;;-0.30;99.90;;;;;;5030014;28;20512;-65
2023/03/15 04:33:02;;;;;;;8.10;2.03;;;-0.30;99.90;;;;;;5029661;28;20902;-65
2023/03/15 04:35:33;;;;;;;3.37;1.60;;;-0.30;99.90;;;;;;5030572;28;20554;-64
2023/03/15 04:37:59;;;;;;;2.43;1.77;;;-0.30;99.90;;;;;;5030430;28;20937;-65
2023/03/15 04:40:26;;;;;;;3.73;1.63;;;-0.30;99.90;;;;;;5030591;28;20422;-65
2023/03/15 04:42:55;;;;;;;3.10;1.90;;;-0.30;99.90;;;;;;5029655;28;20421;-65
2023/03/15 04:45:25;;;;;;;4.93;1.60;;;-0.30;99.90;;;;;;5030376;28;20425;-65
2023/03/15 04:47:51;;;;;;;4.70;1.73;;;-0.30;99.90;;;;;;5034130;28;20479;-65
2023/03/15 04:50:18;;;;;;;7.30;2.27;;;-0.40;99.90;;;;;;5034236;28;20425;-64
2023/03/15 04:52:43;;;;;;;3.70;1.73;;;-0.30;99.90;;;;;;5033585;28;20452;-65
2023/03/15 04:55:09;;;;;;;10.73;2.20;;;-0.30;99.90;;;;;;5034120;28;20453;-65
2023/03/15 04:57:35;;;;;;;8.27;1.60;;;-0.30;99.90;;;;;;5033423;28;20228;-65
2023/03/15 05:00:01;;;;;;;4.13;2.10;;;-0.40;99.90;;;;;;5033434;28;20436;-65
2023/03/15 05:02:26;;;;;;;5.97;2.23;;;-0.40;99.90;;;;;;5033491;28;20198;-65
2023/03/15 05:04:52;;;;;;;4.70;1.80;;;-0.40;99.90;;;;;;5033834;28;20187;-65
2023/03/15 05:07:18;;;;;;;7.47;2.57;;;-0.40;99.90;;;;;;5034038;28;20546;-65
2023/03/15 05:09:45;;;;;;;8.87;3.93;;;-0.40;99.90;;;;;;5034368;28;20233;-65
2023/03/15 05:12:11;;;;;;;13.67;4.90;;;-0.50;99.90;;;;;;5032973;28;20186;-65
2023/03/15 05:14:37;;;;;;;7.83;3.67;;;-0.50;99.90;;;;;;5030527;28;20456;-65
2023/03/15 05:17:03;;;;;;;5.60;2.97;;;-0.60;99.90;;;;;;5029782;28;20527;-65
2023/03/15 05:19:32;;;;;;;6.73;2.40;;;-0.60;99.90;;;;;;5027595;28;20189;-65
2023/03/15 05:21:58;;;;;;;14.30;4.03;;;-0.60;99.90;;;;;;5031396;28;20182;-66
2023/03/15 05:24:24;;;;;;;5.07;2.00;;;-0.60;99.90;;;;;;5033533;28;20901;-64
2023/03/15 05:26:53;;;;;;;6.87;2.60;;;-0.60;99.90;;;;;;5033444;28;20209;-65
2023/03/15 05:29:20;;;;;;;5.17;2.17;;;-0.60;99.90;;;;;;5032769;28;20224;-64
2023/03/15 05:31:46;;;;;;;6.70;3.57;;;-0.60;99.90;;;;;;5032882;28;20429;-64
2023/03/15 05:34:12;;;;;;;7.83;3.10;;;-0.60;99.90;;;;;;5033241;28;20563;-64
2023/03/15 05:36:37;;;;;;;7.23;2.50;;;-0.70;99.90;;;;;;5033104;28;20552;-64
2023/03/15 05:39:03;;;;;;;4.13;1.93;;;-0.60;99.90;;;;;;5033327;28;20265;-64
2023/03/15 05:41:28;;;;;;;3.20;1.80;;;-0.60;99.90;;;;;;5032665;28;20191;-64
2023/03/15 05:43:54;;;;;;;4.30;2.43;;;-0.60;99.90;;;;;;5032648;28;20261;-64
2023/03/15 05:46:21;;;;;;;5.33;1.93;;;-0.60;99.90;;;;;;5032577;28;20209;-64
2023/03/15 05:48:47;;;;;;;6.60;1.90;;;-0.60;99.90;;;;;;5033176;28;20190;-64
2023/03/15 05:51:13;;;;;;;4.87;2.97;;;-0.60;99.90;;;;;;5032883;28;20421;-64
2023/03/15 05:53:39;;;;;;;11.50;4.90;;;-0.60;99.90;;;;;;5032541;28;20923;-64
2023/03/15 05:56:05;;;;;;;12.03;3.47;;;-0.60;99.90;;;;;;5032844;28;20206;-64
2023/03/15 05:58:31;;;;;;;13.90;3.90;;;-0.70;99.90;;;;;;5032614;28;20178;-64
2023/03/15 06:00:56;;;;;;;8.60;3.70;;;-0.60;99.90;;;;;;5032500;28;20437;-65
2023/03/15 06:03:22;;;;;;;8.73;2.47;;;-0.60;99.90;;;;;;5032578;28;20206;-64
2023/03/15 06:05:47;;;;;;;3.90;2.13;;;-0.70;99.90;;;;;;5033072;28;20193;-65
2023/03/15 06:08:13;;;;;;;8.77;2.77;;;-0.70;99.90;;;;;;5033497;28;20182;-64
2023/03/15 06:10:38;;;;;;;6.80;3.10;;;-0.60;99.90;;;;;;5033540;28;20658;-65
2023/03/15 06:13:04;;;;;;;3.90;2.30;;;-0.60;99.90;;;;;;5032821;28;20237;-65
2023/03/15 06:15:30;;;;;;;11.50;2.30;;;-0.60;99.90;;;;;;5032786;28;20206;-65
2023/03/15 06:17:56;;;;;;;3.43;2.13;;;-0.60;99.90;;;;;;5032796;28;20417;-64
2023/03/15 06:20:21;;;;;;;5.30;2.43;;;-0.60;99.90;;;;;;5031981;28;20190;-64
2023/03/15 06:22:47;;;;;;;3.13;1.97;;;-0.50;99.90;;;;;;5031463;28;20186;-65
2023/03/15 06:25:13;;;;;;;6.90;2.23;;;-0.40;99.90;;;;;;5032304;28;20182;-65
2023/03/15 06:27:38;;;;;;;9.53;2.60;;;-0.40;99.90;;;;;;5031897;28;20182;-65
2023/03/15 06:30:05;;;;;;;5.67;2.90;;;-0.30;99.90;;;;;;5031730;28;20197;-65
2023/03/15 06:32:30;;;;;;;10.00;3.37;;;-0.30;99.90;;;;;;5018335;28;20179;-64
2023/03/15 06:34:56;;;;;;;18.67;3.83;;;-0.20;99.90;;;;;;5032296;28;20413;-64
2023/03/15 06:37:22;;;;;;;8.83;3.70;;;-0.20;99.90;;;;;;5031646;28;20574;-64
2023/03/15 06:39:49;;;;;;;4.00;1.80;;;-0.20;99.90;;;;;;5032094;28;20194;-64
2023/03/15 06:42:16;;;;;;;5.93;2.10;;;-0.10;99.90;;;;;;5017452;28;20181;-64
2023/03/15 06:44:42;;;;;;;6.90;2.20;;;0.00;99.90;;;;;;5031579;28;20425;-64
2023/03/15 06:47:09;;;;;;;3.97;1.57;;;0.00;99.90;;;;;;5031931;28;20421;-64
2023/03/15 06:49:35;;;;;;;3.43;1.40;;;0.10;99.90;;;;;;5032449;28;20427;-66
2023/03/15 06:52:02;;;;;;;4.13;1.67;;;0.20;99.90;;;;;;5031327;28;20448;-64
2023/03/15 06:54:28;;;;;;;3.67;1.73;;;0.30;99.90;;;;;;5032454;28;20412;-64
2023/03/15 06:56:53;;;;;;;3.70;1.70;;;0.30;99.90;;;;;;5032263;28;20460;-65
2023/03/15 06:59:19;;;;;;;2.33;1.20;;;0.30;99.90;;;;;;5030930;28;20561;-64
2023/03/15 07:01:45;;;;;;;5.67;2.60;;;0.40;99.90;;;;;;5031221;28;20233;-64
2023/03/15 07:04:10;;;;;;;6.00;2.53;;;0.50;99.90;;;;;;5031478;28;20182;-64
2023/03/15 07:06:36;;;;;;;2.90;1.77;;;0.60;99.90;;;;;;5030246;28;20194;-64
2023/03/15 07:09:03;;;;;;;3.77;1.33;;;0.70;99.90;;;;;;5029807;28;20195;-64
2023/03/15 07:11:28;;;;;;;2.60;1.73;;;0.80;99.90;;;;;;5023610;28;20185;-64
2023/03/15 07:13:54;;;;;;;6.73;1.43;;;1.00;99.90;;;;;;5030509;28;20553;-64
2023/03/15 07:16:20;;;;;;;8.13;2.13;;;1.00;99.90;;;;;;5030803;28;20663;-64
2023/03/15 07:18:45;;;;;;;5.10;1.67;;;1.00;99.90;;;;;;5031356;28;20674;-65
2023/03/15 07:21:11;;;;;;;8.43;1.93;;;1.10;99.90;;;;;;5031308;28;20176;-65
2023/03/15 07:23:37;;;;;;;3.63;1.73;;;1.20;99.90;;;;;;5031033;28;20220;-64
2023/03/15 07:26:02;;;;;;;8.33;2.27;;;1.30;99.90;;;;;;5031166;28;20182;-64
2023/03/15 07:28:28;;;;;;;5.30;2.13;;;1.40;99.90;;;;;;5029825;28;20183;-64
2023/03/15 07:30:56;;;;;;;2.47;1.20;;;1.60;99.90;;;;;;5029953;28;20583;-66
2023/03/15 07:33:23;;;;;;;7.53;2.67;;;1.70;99.90;;;;;;5029389;28;20372;-64
2023/03/15 07:35:52;;;;;;;10.63;1.87;;;2.00;99.90;;;;;;5029071;28;20468;-64
2023/03/15 07:38:18;;;;;;;4.40;1.60;;;2.40;99.90;;;;;;5030016;28;20413;-64
2023/03/15 07:40:44;;;;;;;3.30;1.17;;;3.00;99.90;;;;;;5030301;28;20421;-65
2023/03/15 07:43:10;;;;;;;1.40;0.93;;;3.60;99.90;;;;;;5030173;28;20423;-65
2023/03/15 07:45:36;;;;;;;1.83;0.90;;;4.10;99.90;;;;;;5030610;28;20566;-65
2023/03/15 07:48:01;;;;;;;4.17;1.57;;;4.60;99.90;;;;;;5030925;28;20281;-67
2023/03/15 07:50:27;;;;;;;11.30;1.47;;;4.90;99.90;;;;;;5030593;28;20508;-64
2023/03/15 07:52:53;;;;;;;5.77;1.70;;;5.20;99.90;;;;;;5030093;28;20179;-64
2023/03/15 07:55:18;;;;;;;1.70;0.90;;;5.40;99.90;;;;;;5030632;28;20190;-64
2023/03/15 07:57:44;;;;;;;2.10;0.90;;;5.80;99.30;;;;;;5030072;28;20517;-64
2023/03/15 08:00:12;;;;;;;3.53;1.23;;;5.90;98.80;;;;;;5030492;28;20320;-65
2023/03/15 08:02:38;;;;;;;6.30;1.40;;;6.30;98.40;;;;;;5030025;28;20170;-64
2023/03/15 08:05:04;;;;;;;3.43;1.10;;;6.90;97.40;;;;;;5030344;28;20448;-65
2023/03/15 08:07:30;;;;;;;4.90;1.00;;;7.20;96.70;;;;;;5030017;28;20421;-65
2023/03/15 08:09:58;;;;;;;1.83;0.77;;;7.00;96.80;;;;;;5030499;28;20576;-66
2023/03/15 08:12:24;;;;;;;2.93;1.03;;;7.00;96.60;;;;;;5029322;28;20670;-65
2023/03/15 08:14:50;;;;;;;2.57;0.93;;;7.50;95.60;;;;;;5030128;28;20417;-65
2023/03/15 08:17:16;;;;;;;1.63;0.83;;;7.70;94.30;;;;;;5030223;28;20202;-65
2023/03/15 08:19:43;;;;;;;2.83;0.97;;;7.30;94.60;;;;;;5030076;28;20647;-63
2023/03/15 08:22:09;;;;;;;1.70;1.20;;;7.50;94.90;;;;;;5029561;28;20440;-64
2023/03/15 08:24:34;;;;;;;3.93;1.27;;;7.40;95.20;;;;;;5030866;28;20849;-68
2023/03/15 08:27:00;;;;;;;2.70;0.90;;;7.50;94.60;;;;;;5029778;28;20479;-66
2023/03/15 08:29:27;;;;;;;4.03;1.33;;;7.70;93.60;;;;;;5030088;28;20213;-67
2023/03/15 08:31:53;;;;;;;4.00;1.17;;;7.50;94.00;;;;;;5030121;28;20800;-66
2023/03/15 08:34:18;;;;;;;5.63;1.27;;;7.40;93.50;;;;;;5030404;28;20436;-66
2023/03/15 08:36:47;;;;;;;1.73;1.00;;;7.40;93.40;;;;;;5030335;28;20201;-64
2023/03/15 08:39:13;;;;;;;3.53;1.40;;;7.20;93.00;;;;;;5030267;28;20584;-64
2023/03/15 08:41:40;;;;;;;3.37;1.30;;;7.30;93.30;;;;;;5030013;28;20459;-64
2023/03/15 08:44:06;;;;;;;6.73;1.80;;;7.00;93.70;;;;;;5029363;28;20910;-64
2023/03/15 08:46:32;;;;;;;1.83;1.10;;;6.30;94.20;;;;;;5029940;28;20544;-64
2023/03/15 08:48:58;;;;;;;3.83;1.27;;;6.10;94.90;;;;;;5029818;28;20432;-64
2023/03/15 08:51:25;;;;;;;9.23;1.23;;;6.00;95.50;;;;;;5029970;28;20417;-64
2023/03/15 08:53:51;;;;;;;2.67;1.10;;;6.20;95.90;;;;;;5029735;28;20765;-65
2023/03/15 08:56:17;;;;;;;1.67;0.70;;;6.60;96.30;;;;;;5030092;28;20456;-65
2023/03/15 08:58:43;;;;;;;3.27;1.10;;;6.70;95.80;;;;;;5029674;28;20934;-65
2023/03/15 09:01:13;;;;;;;1.40;0.90;;;6.40;96.00;;;;;;5029477;28;20805;-65
2023/03/15 09:03:41;;;;;;;2.53;0.90;;;5.80;95.30;;;;;;5029402;28;20451;-65
2023/03/15 09:06:07;;;;;;;3.10;1.53;;;5.40;95.90;;;;;;5029726;28;20417;-64
2023/03/15 09:08:33;;;;;;;4.60;1.57;;;5.10;96.40;;;;;;5029402;28;20429;-64
2023/03/15 09:11:00;;;;;;;2.10;1.03;;;5.20;96.90;;;;;;5029978;28;20431;-65
2023/03/15 09:13:28;;;;;;;3.20;0.83;;;5.70;97.10;;;;;;5029382;28;20205;-65
2023/03/15 09:15:55;;;;;;;2.73;1.47;;;6.10;96.60;;;;;;5025262;28;20472;-65
2023/03/15 09:18:21;;;;;;;2.13;1.10;;;6.30;96.70;;;;;;5010896;28;20910;-67
2023/03/15 09:20:48;;;;;;;3.33;1.33;;;6.30;96.20;;;;;;5028479;28;20432;-64
2023/03/15 09:23:14;;;;;;;1.60;0.83;;;5.90;96.10;;;;;;5026973;28;20795;-65
2023/03/15 09:25:40;;;;;;;2.30;0.87;;;5.40;96.40;;;;;;5028644;28;20457;-66
2023/03/15 09:28:08;;;;;;;5.40;1.27;;;5.00;97.20;;;;;;5028585;28;20460;-66
2023/03/15 09:30:35;;;;;;;2.50;1.10;;;4.80;97.90;;;;;;5027922;28;20179;-66
2023/03/15 09:33:01;;;;;;;11.13;1.63;;;4.80;98.70;;;;;;5031068;28;20490;-66
2023/03/15 09:35:26;;;;;;;2.13;0.87;;;5.20;98.60;;;;;;5031658;28;20937;-66
2023/03/15 09:37:52;;;;;;;1.60;0.80;;;5.30;97.30;;;;;;5032094;28;20202;-66
2023/03/15 09:40:23;;;;;;;2.70;0.73;;;5.30;97.20;;;;;;5031943;28;20182;-66
2023/03/15 09:42:59;;;;;;;5.63;1.00;;;5.40;97.10;;;;;;5030858;28;20271;-66
2023/03/15 09:45:24;;;;;;;2.07;0.70;;;5.30;97.80;;;;;;5031350;28;20520;-66
2023/03/15 09:47:56;;;;;;;1.40;0.80;;;5.10;96.30;;;;;;5031711;28;20977;-66
2023/03/15 09:50:34;;;;;;;2.30;1.17;;;5.10;97.90;;;;;;5020301;28;20228;-66
2023/03/15 09:53:07;;;;;;;3.77;1.43;;;5.10;98.30;;;;;;5030909;28;20897;-66
2023/03/15 09:55:33;;;;;;;2.50;1.00;;;4.80;97.40;;;;;;5031304;28;20465;-66
2023/03/15 09:58:01;;;;;;;4.23;1.30;;;4.70;98.00;;;;;;5031024;28;20467;-66
2023/03/15 10:00:49;;;;;;;2.10;0.80;;;4.70;98.20;;;;;;5031215;28;20198;-66
2023/03/15 10:03:21;;;;;;;3.20;1.27;;;4.60;97.90;;;;;;5030792;28;20513;-66
2023/03/15 10:05:54;;;;;;;9.23;3.83;;;4.50;98.00;;;;;;5031220;28;20467;-66
2023/03/15 10:08:20;;;;;;;4.40;1.87;;;4.90;97.90;;;;;;5031181;28;20453;-66
2023/03/15 10:10:55;;;;;;;12.43;1.63;;;5.10;96.80;;;;;;5035661;28;20444;-66
2023/03/15 10:13:58;;;;;;;1.80;1.10;;;5.30;95.70;;;;;;5030235;28;20420;-66
2023/03/15 10:16:27;;;;;;;1.97;0.77;;;5.20;94.30;;;;;;5029839;28;20483;-66
2023/03/15 10:19:11;;;;;;;2.07;0.80;;;5.30;95.20;;;;;;5030963;28;20766;-66
2023/03/15 10:21:44;;;;;;;2.17;0.70;;;5.30;95.20;;;;;;5024375;28;21227;-66
2023/03/15 10:24:18;;;;;;;3.70;1.07;;;5.40;95.40;;;;;;5030786;28;20436;-66
2023/03/15 10:26:44;;;;;;;2.90;0.97;;;5.60;94.80;;;;;;5031048;28;20433;-66
2023/03/15 10:29:18;;;;;;;1.43;0.77;;;5.40;94.20;;;;;;5030446;28;20535;-66
2023/03/15 10:31:46;;;;;;;2.90;0.63;;;5.70;95.60;;;;;;5030693;28;20512;-66
2023/03/15 10:34:13;;;;;;;3.67;1.00;;;5.90;95.50;;;;;;5030671;28;20429;-66
2023/03/15 10:36:48;;;;;;;4.30;0.80;;;6.10;93.40;;;;;;5031065;28;20483;-66
2023/03/15 10:39:14;;;;;;;1.97;1.10;;;6.00;94.70;;;;;;5030738;28;20433;-66
2023/03/15 10:41:43;;;;;;;3.30;1.10;;;6.10;94.40;;;;;;5030751;28;20635;-66
2023/03/15 10:44:20;;;;;;;1.70;0.63;;;6.30;94.50;;;;;;5029529;28;20421;-66
2023/03/15 10:47:10;;;;;;;1.50;0.70;;;6.50;94.10;;;;;;5029821;28;20420;-66
2023/03/15 10:49:39;;;;;;;4.40;1.00;;;6.50;93.80;;;;;;5030429;28;20805;-66
2023/03/15 10:52:05;;;;;;;1.20;0.60;;;6.40;94.40;;;;;;5030186;28;20424;-66
2023/03/15 10:54:33;;;;;;;1.53;0.67;;;6.40;94.50;;;;;;5030689;28;20432;-66
2023/03/15 10:57:01;;;;;;;1.63;1.00;;;6.40;94.60;;;;;;5030492;28;20916;-66
2023/03/15 10:59:29;;;;;;;1.60;0.80;;;6.90;93.40;;;;;;5029534;28;20516;-66
2023/03/15 11:02:17;;;;;;;3.40;0.83;;;6.90;93.00;;;;;;5029062;28;20516;-66
2023/03/15 11:04:48;;;;;;;2.27;1.03;;;7.10;92.20;;;;;;5029672;28;20443;-66
2023/03/15 11:07:14;;;;;;;1.60;0.70;;;7.00;92.20;;;;;;5029242;28;20424;-66
2023/03/15 11:09:42;;;;;;;1.40;0.63;;;7.10;93.10;;;;;;5031163;28;20474;-66
2023/03/15 11:12:14;;;;;;;2.00;0.80;;;7.50;92.90;;;;;;5030910;28;20553;-66
2023/03/15 11:14:43;;;;;;;2.03;0.90;;;7.60;92.10;;;;;;5016731;28;20417;-66
2023/03/15 11:17:28;;;;;;;11.77;1.00;;;7.90;90.50;;;;;;5030007;28;20864;-66
2023/03/15 11:20:11;;;;;;;2.13;0.60;;;8.10;91.40;;;;;;5030183;28;20460;-66
2023/03/15 11:22:40;;;;;;;1.30;0.50;;;8.00;91.00;;;;;;5029189;28;20941;-66
2023/03/15 11:25:16;;;;;;;13.70;1.00;;;7.70;90.40;;;;;;5029514;28;20476;-66
2023/03/15 11:27:43;;;;;;;3.03;0.90;;;7.30;91.20;;;;;;5017284;28;20456;-66
2023/03/15 11:30:14;;;;;;;2.60;1.10;;;7.30;91.90;;;;;;5029547;28;20912;-66
2023/03/15 11:32:41;;;;;;;10.80;0.93;;;7.30;90.00;;;;;;5029469;28;20421;-66
2023/03/15 11:35:12;;;;;;;1.40;0.70;;;7.30;88.60;;;;;;5029570;28;20479;-67
2023/03/15 11:38:00;;;;;;;1.20;0.60;;;7.20;88.50;;;;;;5029121;28;20441;-66
2023/03/15 11:40:31;;;;;;;1.70;0.67;;;7.00;87.50;;;;;;5029442;28;20425;-66
2023/03/15 11:43:05;;;;;;;6.70;0.80;;;7.10;88.70;;;;;;5029048;28;20760;-66
2023/03/15 11:45:37;;;;;;;2.13;0.80;;;7.20;90.00;;;;;;5021150;28;20828;-66
2023/03/15 11:48:20;;;;;;;4.00;1.20;;;7.00;87.10;;;;;;5028570;28;20424;-66
2023/03/15 11:50:46;;;;;;;5.43;0.80;;;7.00;87.70;;;;;;5029723;28;20409;-66
2023/03/15 11:53:15;;;;;;;1.20;0.50;;;7.00;89.50;;;;;;5029414;28;20421;-66
2023/03/15 11:55:47;;;;;;;3.33;0.70;;;6.90;86.00;;;;;;5029612;28;20221;-66
2023/03/15 11:58:41;;;;;;;1.10;0.50;;;6.80;86.80;;;;;;5029355;28;20421;-65
2023/03/15 12:01:09;;;;;;;2.20;0.50;;;6.80;86.10;;;;;;5029074;28;20437;-65
2023/03/15 12:03:38;;;;;;;1.60;0.50;;;6.70;86.80;;;;;;5029175;28;20425;-66
2023/03/15 12:06:10;;;;;;;1.20;0.60;;;6.90;88.80;;;;;;5029699;28;20444;-65
2023/03/15 12:08:38;;;;;;;1.60;0.83;;;6.90;87.30;;;;;;5031806;28;20782;-66
2023/03/15 12:11:33;;;;;;;2.27;0.80;;;7.00;85.80;;;;;;5044194;28;20865;-66
2023/03/15 12:13:59;;;;;;;1.70;0.50;;;7.40;86.50;;;;;;5050475;28;20427;-65
2023/03/15 12:16:27;;;;;;;7.30;1.23;;;7.40;83.50;;;;;;5030589;28;20468;-66
2023/03/15 12:18:57;;;;;;;1.50;0.80;;;7.50;84.40;;;;;;5032290;28;20205;-67
2023/03/15 12:21:32;;;;;;;9.70;1.03;;;7.40;82.80;;;;;;5029527;28;20436;-66
2023/03/15 12:24:04;;;;;;;2.13;0.80;;;7.40;83.10;;;;;;5030827;28;20475;-66
2023/03/15 12:26:45;;;;;;;4.50;1.10;;;7.50;84.50;;;;;;5030721;28;20480;-67
2023/03/15 12:29:19;;;;;;;2.10;0.93;;;7.40;86.10;;;;;;5029496;28;20431;-67
2023/03/15 12:32:03;;;;;;;2.13;0.70;;;7.50;85.00;;;;;;5028420;28;20913;-66
2023/03/15 12:34:35;;;;;;;2.93;0.70;;;7.50;83.80;;;;;;5029193;28;20520;-66
2023/03/15 12:37:06;;;;;;;1.30;0.60;;;7.50;83.20;;;;;;5028454;28;20996;-66
2023/03/15 12:39:47;;;;;;;1.30;0.60;;;7.30;82.30;;;;;;5029077;28;20436;-66
2023/03/15 12:42:29;;;;;;;3.20;1.33;;;7.20;86.40;;;;;;5027972;28;20909;-66
2023/03/15 12:45:15;;;;;;;1.80;0.90;;;7.60;84.00;;;;;;5028713;28;20416;-67
2023/03/15 12:47:50;;;;;;;1.83;0.70;;;7.50;84.60;;;;;;5028851;28;20527;-66
2023/03/15 12:50:43;;;;;;;1.90;0.60;;;7.30;85.70;;;;;;5028686;28;21004;-66
2023/03/15 12:53:37;;;;;;;1.20;0.60;;;7.20;87.70;;;;;;5028645;28;20433;-66
2023/03/15 12:56:17;;;;;;;1.50;0.63;;;7.20;87.60;;;;;;5028099;28;20933;-67
2023/03/15 12:58:50;;;;;;;1.23;0.57;;;7.50;85.50;;;;;;5016440;28;20431;-65
2023/03/15 13:01:17;;;;;;;1.50;0.67;;;7.50;85.20;;;;;;5027715;28;20455;-66